Time;durP1;ratioP1;P1;durP2;ratioP2;P2;SDS_P1;SDS_P2;PMS_P1;PMS_P2;Temp;Humidity;BMP_temperature;BMP_pressure;BME280_temperature;BME280_humidity;BME280_pressure;Samples;Min_cycle;Max_cycle;Signal;HPM_P1;HPM_P2
2021/04/07 00:02:08;;;;;;;2.80;2.10;;;;;;;-0.29;86.27;99787.84;5056213;28;20285;-82
2021/04/07 00:04:35;;;;;;;4.17;1.87;;;;;;;-0.31;86.02;99794.66;5051672;28;20212;-83
2021/04/07 00:07:01;;;;;;;2.80;2.00;;;;;;;-0.35;86.23;99790.34;5072241;28;20605;-83
2021/04/07 00:09:28;;;;;;;3.57;2.60;;;;;;;-0.39;86.46;99780.88;5055362;28;20221;-80
2021/04/07 00:11:54;;;;;;;3.93;2.40;;;;;;;-0.41;86.59;99783.41;5077048;28;20675;-80
2021/04/07 00:14:20;;;;;;;3.77;2.07;;;;;;;-0.42;86.39;99784.22;5067894;28;20203;-82
2021/04/07 00:16:47;;;;;;;4.27;2.80;;;;;;;-0.44;86.65;99780.78;5051619;28;20206;-82
2021/04/07 00:19:13;;;;;;;3.20;2.67;;;;;;;-0.51;86.83;99782.41;5046755;28;20228;-82
2021/04/07 00:21:39;;;;;;;5.03;2.60;;;;;;;-0.55;86.70;99787.47;5047418;28;20203;-82
2021/04/07 00:24:06;;;;;;;3.20;2.20;;;;;;;-0.60;86.75;99784.81;5049211;28;20763;-82
2021/04/07 00:26:34;;;;;;;5.47;2.97;;;;;;;-0.69;87.27;99783.00;5064226;28;20667;-81
2021/04/07 00:29:00;;;;;;;2.97;2.70;;;;;;;-0.70;87.39;99790.66;5050285;28;20216;-83
2021/04/07 00:31:25;;;;;;;3.77;2.77;;;;;;;-0.70;87.14;99788.94;5064038;28;20296;-82
2021/04/07 00:33:51;;;;;;;3.10;2.57;;;;;;;-0.54;87.45;99792.59;5074362;28;20221;-81
2021/04/07 00:36:17;;;;;;;4.17;2.67;;;;;;;-0.51;87.09;99794.38;5063814;28;20209;-82
2021/04/07 00:38:45;;;;;;;5.93;3.43;;;;;;;-0.39;86.70;99801.38;5070108;28;20547;-81
2021/04/07 00:41:11;;;;;;;5.83;3.03;;;;;;;-0.35;86.46;99803.16;5069172;28;20210;-82
2021/04/07 00:43:37;;;;;;;3.17;2.50;;;;;;;-0.28;86.05;99802.38;5056785;28;20828;-82
2021/04/07 00:46:03;;;;;;;4.17;3.60;;;;;;;-0.38;86.32;99810.78;5059302;28;20246;-82
2021/04/07 00:48:29;;;;;;;5.50;2.43;;;;;;;-0.39;86.45;99809.94;5057931;28;20202;-83
2021/04/07 00:50:55;;;;;;;4.77;2.60;;;;;;;-0.38;86.78;99808.22;5062082;28;20202;-81
2021/04/07 00:53:21;;;;;;;5.83;2.70;;;;;;;-0.30;86.39;99811.75;5070365;28;20207;-82
2021/04/07 00:55:48;;;;;;;5.63;2.77;;;;;;;-0.26;86.42;99819.53;5062234;28;20210;-82
2021/04/07 00:58:16;;;;;;;4.10;2.63;;;;;;;-0.23;86.20;99821.28;5062574;28;20691;-82
2021/04/07 01:00:42;;;;;;;4.10;2.77;;;;;;;-0.32;86.38;99818.56;5061591;28;20237;-82
2021/04/07 01:03:12;;;;;;;5.37;2.90;;;;;;;-0.25;86.34;99826.38;5072412;28;20221;-81
2021/04/07 01:05:39;;;;;;;4.23;3.20;;;;;;;-0.36;86.62;99820.22;5070549;28;20299;-81
2021/04/07 01:08:06;;;;;;;3.67;3.00;;;;;;;-0.33;86.43;99819.44;5071066;28;20205;-82
2021/04/07 01:10:31;;;;;;;3.93;2.80;;;;;;;-0.33;86.09;99822.84;5068350;28;20228;-80
2021/04/07 01:12:58;;;;;;;3.73;3.23;;;;;;;-0.36;85.77;99815.09;5065754;28;20204;-82
2021/04/07 01:15:25;;;;;;;3.70;3.17;;;;;;;-0.39;85.62;99815.06;5062076;28;20266;-83
2021/04/07 01:17:51;;;;;;;5.43;2.93;;;;;;;-0.34;85.38;99820.25;5070203;28;20212;-83
2021/04/07 01:20:19;;;;;;;6.33;3.50;;;;;;;-0.36;85.24;99817.66;5065920;28;20218;-82
2021/04/07 01:22:47;;;;;;;3.50;2.97;;;;;;;-0.44;85.26;99827.81;5064757;28;20229;-81
2021/04/07 01:25:14;;;;;;;4.43;2.63;;;;;;;-0.54;85.54;99830.19;5059098;28;20258;-83
2021/04/07 01:27:41;;;;;;;6.47;3.37;;;;;;;-0.53;85.37;99834.50;5066092;28;20819;-83
2021/04/07 01:30:09;;;;;;;4.77;3.23;;;;;;;-0.63;85.72;99834.34;5062233;28;20216;-82
2021/04/07 01:32:36;;;;;;;6.43;2.97;;;;;;;-0.66;86.08;99834.28;5065512;28;20202;-81
2021/04/07 01:35:02;;;;;;;7.47;3.27;;;;;;;-0.66;85.63;99836.84;5062152;28;20208;-83
2021/04/07 01:37:28;;;;;;;4.37;2.70;;;;;;;-0.68;86.07;99832.53;5070527;28;20208;-81
2021/04/07 01:39:53;;;;;;;8.00;3.33;;;;;;;-0.65;85.96;99838.56;5066409;28;20238;-82
2021/04/07 01:42:21;;;;;;;6.57;3.20;;;;;;;-0.56;86.05;99847.25;5078032;28;20220;-81
2021/04/07 01:44:47;;;;;;;5.00;3.33;;;;;;;-0.55;85.93;99841.31;5071000;28;20259;-79
2021/04/07 01:47:13;;;;;;;4.67;3.37;;;;;;;-0.47;85.91;99855.09;5062329;28;20570;-82
2021/04/07 01:49:40;;;;;;;6.13;3.43;;;;;;;-0.46;85.65;99849.13;5058616;28;20226;-83
2021/04/07 01:52:06;;;;;;;4.77;3.13;;;;;;;-0.48;85.20;99853.38;5069914;28;20198;-82
2021/04/07 01:54:34;;;;;;;6.20;3.13;;;;;;;-0.43;84.79;99857.72;5067700;28;20202;-82
2021/04/07 01:57:00;;;;;;;3.50;2.83;;;;;;;-0.47;84.48;99861.09;5068978;28;20208;-83
2021/04/07 01:59:29;;;;;;;5.40;3.60;;;;;;;-0.42;84.51;99863.72;5068745;28;20284;-81
2021/04/07 02:01:56;;;;;;;7.17;4.20;;;;;;;-0.45;84.35;99859.41;5061510;28;20227;-82
2021/04/07 02:04:23;;;;;;;3.93;3.37;;;;;;;-0.45;84.45;99858.56;5057583;28;20198;-82
2021/04/07 02:06:49;;;;;;;5.03;3.27;;;;;;;-0.53;84.25;99861.00;5069045;28;20252;-82
2021/04/07 02:09:16;;;;;;;10.93;4.07;;;;;;;-0.55;84.78;99859.25;5071839;28;20284;-83
2021/04/07 02:11:42;;;;;;;6.87;4.77;;;;;;;-0.59;84.93;99866.03;5075774;28;20260;-81
2021/04/07 02:14:09;;;;;;;7.40;4.57;;;;;;;-0.56;84.38;99871.19;5073741;28;20208;-83
2021/04/07 02:16:35;;;;;;;8.93;4.20;;;;;;;-0.61;84.96;99867.69;5067258;28;20222;-83
2021/04/07 02:19:06;;;;;;;6.67;4.40;;;;;;;-0.64;84.67;99860.78;5074177;28;20274;-83
2021/04/07 02:21:32;;;;;;;9.50;4.57;;;;;;;-0.66;84.58;99866.75;5051414;28;20202;-82
2021/04/07 02:23:57;;;;;;;8.20;4.53;;;;;;;-0.70;84.30;99860.69;5061527;28;20243;-82
2021/04/07 02:26:23;;;;;;;6.30;4.03;;;;;;;-0.70;84.14;99858.13;5065227;28;20201;-81
2021/04/07 02:28:49;;;;;;;5.60;3.37;;;;;;;-0.75;84.46;99856.31;5057192;28;20255;-82
2021/04/07 02:31:15;;;;;;;6.37;3.87;;;;;;;-0.77;84.53;99863.13;5065020;28;20210;-80
2021/04/07 02:33:42;;;;;;;5.37;3.13;;;;;;;-0.78;84.55;99851.16;5074606;28;20401;-80
2021/04/07 02:36:08;;;;;;;8.57;3.43;;;;;;;-0.80;84.51;99851.97;5061595;28;20198;-80
2021/04/07 02:38:34;;;;;;;7.03;3.70;;;;;;;-0.86;84.82;99851.03;5073977;28;20708;-82
2021/04/07 02:41:00;;;;;;;6.07;3.13;;;;;;;-0.83;84.69;99849.38;5069923;28;20209;-82
2021/04/07 02:43:26;;;;;;;7.80;3.17;;;;;;;-0.78;84.42;99846.03;5049955;28;20718;-83
2021/04/07 02:45:51;;;;;;;6.70;2.97;;;;;;;-0.75;84.32;99857.22;5054755;28;20209;-83
2021/04/07 02:48:17;;;;;;;7.93;3.23;;;;;;;-0.83;84.92;99851.09;5058031;28;20212;-81
2021/04/07 02:50:44;;;;;;;6.40;2.73;;;;;;;-0.75;84.61;99852.09;5066641;28;20229;-82
2021/04/07 02:53:10;;;;;;;5.17;3.00;;;;;;;-0.68;84.18;99851.31;5068022;28;20672;-82
2021/04/07 02:55:36;;;;;;;7.80;3.07;;;;;;;-0.62;83.90;99856.56;5065717;28;20205;-83
2021/04/07 02:58:02;;;;;;;6.93;3.17;;;;;;;-0.64;84.02;99862.50;5055342;28;20206;-83
2021/04/07 03:00:28;;;;;;;6.03;4.00;;;;;;;-0.77;84.53;99864.00;5060721;28;20707;-81
2021/04/07 03:02:54;;;;;;;8.37;4.47;;;;;;;-0.84;85.25;99860.44;5075518;28;20224;-81
2021/04/07 03:05:20;;;;;;;8.63;5.33;;;;;;;-0.85;85.62;99861.31;5069201;28;20239;-82
2021/04/07 03:07:46;;;;;;;6.50;4.83;;;;;;;-0.77;85.34;99863.13;5068096;28;20197;-82
2021/04/07 03:10:13;;;;;;;6.43;4.87;;;;;;;-0.85;85.12;99866.44;5068599;28;20284;-82
2021/04/07 03:12:39;;;;;;;7.33;4.70;;;;;;;-0.88;84.93;99871.47;5072133;28;20208;-83
2021/04/07 03:15:09;;;;;;;7.13;4.67;;;;;;;-0.89;85.26;99866.31;5051084;28;20201;-83
2021/04/07 03:17:35;;;;;;;5.87;4.07;;;;;;;-0.91;84.81;99868.88;5057585;28;20255;-83
2021/04/07 03:20:01;;;;;;;10.63;4.43;;;;;;;-0.97;84.68;99876.47;5059355;28;20234;-83
2021/04/07 03:22:27;;;;;;;5.57;4.60;;;;;;;-0.94;84.33;99868.81;5067570;28;20698;-82
2021/04/07 03:24:53;;;;;;;11.17;5.37;;;;;;;-0.97;84.54;99871.34;5069696;28;20197;-83
2021/04/07 03:27:19;;;;;;;6.60;4.30;;;;;;;-1.02;84.97;99883.19;5066873;28;20225;-83
2021/04/07 03:29:45;;;;;;;10.00;4.50;;;;;;;-1.00;84.43;99874.69;5058261;28;20221;-82
2021/04/07 03:32:11;;;;;;;6.37;4.23;;;;;;;-0.94;84.30;99880.75;5068331;28;20288;-82
2021/04/07 03:34:37;;;;;;;10.87;4.60;;;;;;;-0.95;84.07;99879.03;5069997;28;20206;-82
2021/04/07 03:37:03;;;;;;;6.37;4.50;;;;;;;-0.99;84.26;99885.81;5068795;28;20211;-81
2021/04/07 03:39:29;;;;;;;12.90;5.27;;;;;;;-0.98;83.77;99887.53;5069924;28;20234;-82
2021/04/07 03:41:55;;;;;;;8.43;4.73;;;;;;;-1.06;84.18;99879.69;5070814;28;20199;-82
2021/04/07 03:44:22;;;;;;;10.60;4.63;;;;;;;-1.05;84.43;99885.66;5039380;28;20236;-80
2021/04/07 03:46:51;;;;;;;8.37;4.77;;;;;;;-1.03;84.31;99887.44;5074589;28;20631;-82
2021/04/07 03:49:17;;;;;;;4.80;3.93;;;;;;;-0.97;84.44;99891.81;5088251;28;20218;-82
2021/04/07 03:51:42;;;;;;;8.83;4.40;;;;;;;-1.02;84.52;99890.88;5084128;28;20192;-81
2021/04/07 03:54:08;;;;;;;6.53;4.23;;;;;;;-0.95;84.21;99890.16;5090430;28;20195;-81
2021/04/07 03:56:34;;;;;;;9.17;5.07;;;;;;;-1.01;83.98;99890.03;5083653;28;20209;-81
2021/04/07 03:59:01;;;;;;;9.07;4.43;;;;;;;-1.07;84.20;99895.03;5085046;28;20211;-80
2021/04/07 04:01:27;;;;;;;7.33;3.93;;;;;;;-1.14;84.43;99898.31;5082300;28;20214;-81
2021/04/07 04:03:53;;;;;;;11.00;4.23;;;;;;;-1.09;84.46;99899.25;5073201;28;20274;-80
2021/04/07 04:06:19;;;;;;;7.90;4.47;;;;;;;-1.15;84.73;99900.03;5086647;28;20728;-81
2021/04/07 04:08:44;;;;;;;7.77;3.90;;;;;;;-1.10;84.63;99900.97;5075298;28;20216;-81
2021/04/07 04:11:10;;;;;;;10.93;4.37;;;;;;;-1.05;84.20;99893.34;5081819;28;20740;-83
2021/04/07 04:13:36;;;;;;;6.07;4.20;;;;;;;-1.11;84.07;99895.81;5067215;28;20221;-83
2021/04/07 04:16:03;;;;;;;6.60;3.50;;;;;;;-1.10;84.48;99890.72;5059377;28;20671;-83
2021/04/07 04:18:29;;;;;;;10.83;3.90;;;;;;;-1.11;84.72;99903.47;5078019;28;20801;-83
2021/04/07 04:20:55;;;;;;;8.53;4.23;;;;;;;-1.11;84.24;99899.25;5061593;28;20225;-83
2021/04/07 04:23:21;;;;;;;9.93;4.53;;;;;;;-1.07;84.29;99910.38;5069832;28;20320;-83
2021/04/07 04:25:47;;;;;;;5.97;3.63;;;;;;;-1.06;84.22;99914.69;5061802;28;20320;-83
2021/04/07 04:28:13;;;;;;;9.03;4.50;;;;;;;-1.07;84.17;99920.63;5067782;28;20224;-81
2021/04/07 04:30:39;;;;;;;8.83;4.90;;;;;;;-1.08;84.18;99924.91;5084830;28;20212;-81
2021/04/07 04:33:05;;;;;;;3.97;3.50;;;;;;;-1.11;84.61;99918.84;5079398;28;20215;-81
2021/04/07 04:35:32;;;;;;;5.20;3.03;;;;;;;-1.01;84.47;99925.91;5091309;28;20204;-80
2021/04/07 04:37:57;;;;;;;14.87;5.60;;;;;;;-1.03;83.78;99923.31;5083185;28;20660;-82
2021/04/07 04:40:23;;;;;;;7.97;3.13;;;;;;;-1.08;83.70;99924.91;5073058;28;20233;-82
2021/04/07 04:42:49;;;;;;;6.73;3.70;;;;;;;-1.01;83.51;99920.78;5071570;28;20575;-82
2021/04/07 04:45:16;;;;;;;4.57;3.13;;;;;;;-1.07;83.65;99926.63;5064301;28;20704;-80
2021/04/07 04:47:42;;;;;;;6.10;3.27;;;;;;;-1.00;83.38;99932.75;5067995;28;20205;-81
2021/04/07 04:50:11;;;;;;;15.53;3.50;;;;;;;-0.98;83.03;99930.22;5056047;28;20449;-82
2021/04/07 04:52:37;;;;;;;7.17;2.90;;;;;;;-1.06;83.40;99937.75;5070394;28;20671;-79
2021/04/07 04:55:04;;;;;;;7.37;3.33;;;;;;;-1.02;83.44;99934.41;5072665;28;20674;-82
2021/04/07 04:57:32;;;;;;;4.23;2.97;;;;;;;-0.92;83.31;99933.75;5071344;28;20310;-83
2021/04/07 04:59:57;;;;;;;5.23;2.90;;;;;;;-0.93;82.83;99932.03;5074182;28;20225;-83
2021/04/07 05:02:23;;;;;;;6.80;2.70;;;;;;;-0.84;82.62;99933.91;5071402;28;20581;-84
2021/04/07 05:04:49;;;;;;;10.03;3.47;;;;;;;-0.84;82.29;99939.88;5068853;28;20200;-82
2021/04/07 05:07:16;;;;;;;8.27;2.50;;;;;;;-0.88;82.55;99937.22;5078957;28;20197;-82
2021/04/07 05:09:42;;;;;;;7.83;2.97;;;;;;;-0.90;82.51;99936.34;5072551;28;20232;-84
2021/04/07 05:12:08;;;;;;;4.57;2.47;;;;;;;-0.86;82.34;99938.13;5078924;28;20565;-80
2021/04/07 05:14:34;;;;;;;5.83;2.70;;;;;;;-0.75;81.98;99940.88;5072768;28;20209;-83
2021/04/07 05:17:00;;;;;;;10.90;2.70;;;;;;;-0.77;81.52;99943.44;5070943;28;20205;-80
2021/04/07 05:19:26;;;;;;;6.77;2.67;;;;;;;-0.65;81.37;99946.22;5073540;28;20289;-82
2021/04/07 05:21:52;;;;;;;4.07;2.50;;;;;;;-0.62;81.22;99953.09;5067897;28;20201;-82
2021/04/07 05:24:19;;;;;;;4.93;2.07;;;;;;;-0.60;81.44;99959.09;5057846;28;20248;-84
2021/04/07 05:26:45;;;;;;;8.17;2.87;;;;;;;-0.55;81.32;99964.34;5065185;28;20308;-82
2021/04/07 05:29:10;;;;;;;4.27;2.90;;;;;;;-0.57;81.56;99960.88;5049991;28;20229;-82
2021/04/07 05:31:36;;;;;;;4.73;2.00;;;;;;;-0.54;81.08;99966.91;5076518;28;20208;-81
2021/04/07 05:34:03;;;;;;;10.30;2.43;;;;;;;-0.53;81.28;99966.09;5049419;28;20202;-83
2021/04/07 05:36:29;;;;;;;9.50;2.77;;;;;;;-0.40;81.32;99969.72;5066879;28;20209;-83
2021/04/07 05:38:55;;;;;;;7.73;2.50;;;;;;;-0.37;80.79;99964.66;5059254;28;20598;-83
2021/04/07 05:43:48;;;;;;;3.57;2.63;;;;;;;-0.31;79.87;99969.03;5090159;22;20733;-74
2021/04/07 05:46:14;;;;;;;6.37;2.10;;;;;;;-0.31;80.55;99961.34;5056404;28;20207;-75
2021/04/07 05:48:41;;;;;;;6.87;2.20;;;;;;;-0.23;80.22;99963.19;5057364;28;20262;-77
2021/04/07 05:51:07;;;;;;;5.87;2.40;;;;;;;-0.13;80.41;99964.22;5060241;28;20209;-77
2021/04/07 05:53:33;;;;;;;5.73;1.93;;;;;;;-0.10;79.85;99966.84;5050422;28;20232;-76
2021/04/07 05:55:59;;;;;;;8.83;2.90;;;;;;;-0.12;79.80;99965.94;5046025;28;20206;-76
2021/04/07 05:58:27;;;;;;;8.87;2.90;;;;;;;-0.13;80.04;99973.63;5059649;28;20208;-77
2021/04/07 06:00:54;;;;;;;6.13;2.63;;;;;;;-0.14;80.27;99974.44;5067857;28;20213;-77
2021/04/07 06:03:20;;;;;;;8.27;3.00;;;;;;;-0.04;80.06;99968.63;5050878;28;20234;-76
2021/04/07 06:05:48;;;;;;;4.27;2.30;;;;;;;0.05;79.41;99966.22;5069129;28;20225;-76
2021/04/07 06:08:16;;;;;;;3.43;2.30;;;;;;;0.05;79.41;99976.47;5055452;28;20206;-76
2021/04/07 06:10:49;;;;;;;6.80;2.13;;;;;;;-0.09;79.26;99971.13;5055672;28;20226;-76
2021/04/07 06:13:17;;;;;;;2.90;2.10;;;;;;;-0.07;79.54;99966.88;5058717;28;20208;-76
2021/04/07 06:15:44;;;;;;;7.23;2.87;;;;;;;0.02;79.90;99979.00;5061974;28;20225;-76
2021/04/07 06:18:13;;;;;;;5.43;2.00;;;;;;;0.03;79.78;99973.03;5053320;28;20201;-76
2021/04/07 06:20:41;;;;;;;7.23;2.00;;;;;;;-0.05;80.10;99975.47;5065311;28;20736;-77
2021/04/07 06:23:08;;;;;;;4.97;2.07;;;;;;;0.02;79.42;99986.72;5055847;28;20222;-76
2021/04/07 06:25:36;;;;;;;4.03;1.90;;;;;;;0.04;79.31;99974.75;5055515;28;20234;-75
2021/04/07 06:28:05;;;;;;;3.73;2.17;;;;;;;0.06;78.86;99967.94;5050672;28;20205;-75
2021/04/07 06:30:42;;;;;;;3.97;2.50;;;;;;;0.13;79.03;99972.31;5052531;28;20676;-74
2021/04/07 06:33:14;;;;;;;7.63;2.60;;;;;;;0.32;79.01;99988.03;5052959;28;20201;-74
2021/04/07 06:35:41;;;;;;;3.33;1.77;;;;;;;0.30;78.36;99979.44;5056245;28;20231;-74
2021/04/07 06:38:08;;;;;;;6.83;2.30;;;;;;;0.30;78.20;99979.44;5050921;28;20199;-75
2021/04/07 06:40:34;;;;;;;8.70;2.37;;;;;;;0.20;78.67;99991.25;5051532;28;20198;-75
2021/04/07 06:43:02;;;;;;;4.03;2.43;;;;;;;0.28;78.37;99987.13;5048847;28;20229;-74
2021/04/07 06:45:29;;;;;;;4.80;3.13;;;;;;;0.27;78.39;99989.66;5048832;28;20244;-74
2021/04/07 06:47:55;;;;;;;5.73;2.53;;;;;;;0.23;78.50;100001.56;5051463;28;20208;-74
2021/04/07 06:50:22;;;;;;;4.60;2.97;;;;;;;0.24;78.59;100003.31;5050956;28;20248;-75
2021/04/07 06:52:50;;;;;;;5.80;2.73;;;;;;;0.25;77.95;99993.91;5047558;28;20203;-75
2021/04/07 06:55:17;;;;;;;4.03;2.40;;;;;;;0.32;78.50;100000.88;5056642;28;20217;-75
2021/04/07 06:57:43;;;;;;;7.87;5.13;;;;;;;0.41;78.16;100000.97;5053451;28;20204;-75
2021/04/07 07:00:10;;;;;;;3.83;2.93;;;;;;;0.53;78.09;100001.16;5052229;28;20317;-75
2021/04/07 07:02:36;;;;;;;3.43;3.07;;;;;;;0.53;77.68;99996.03;5051679;28;20209;-74
2021/04/07 07:05:03;;;;;;;6.83;3.20;;;;;;;0.61;77.76;99995.28;5055660;28;20226;-76
2021/04/07 07:07:30;;;;;;;4.30;3.03;;;;;;;0.71;77.80;99997.13;5045155;28;20212;-75
2021/04/07 07:09:57;;;;;;;4.30;2.60;;;;;;;0.61;77.12;99991.00;5054430;28;20247;-76
2021/04/07 07:12:24;;;;;;;4.80;2.93;;;;;;;0.54;77.54;99989.22;5044315;28;20235;-75
2021/04/07 07:14:50;;;;;;;4.63;3.37;;;;;;;0.51;78.03;99992.56;5056027;28;20214;-76
2021/04/07 07:17:26;;;;;;;4.53;2.77;;;;;;;0.49;77.87;99994.25;5040950;28;20234;-74
2021/04/07 07:19:53;;;;;;;4.33;2.93;;;;;;;0.63;78.30;99994.44;5058333;28;20201;-75
2021/04/07 07:22:22;;;;;;;5.70;3.40;;;;;;;0.74;77.98;99997.19;5045828;28;20233;-76
2021/04/07 07:24:52;;;;;;;5.13;3.17;;;;;;;0.69;77.55;99999.66;5055809;28;20228;-76
2021/04/07 07:27:18;;;;;;;5.97;2.53;;;;;;;0.83;77.51;99997.28;5042574;28;20725;-76
2021/04/07 07:29:54;;;;;;;3.77;3.37;;;;;;;0.92;77.05;99997.41;5053341;28;20207;-75
2021/04/07 07:32:20;;;;;;;3.83;2.47;;;;;;;0.96;76.31;99999.19;5049565;28;20235;-73
2021/04/07 07:34:46;;;;;;;5.00;2.50;;;;;;;1.06;76.56;99996.75;5055122;28;20230;-73
2021/04/07 07:37:23;;;;;;;4.87;2.40;;;;;;;1.14;75.92;100001.13;5044199;28;20213;-71
2021/04/07 07:39:50;;;;;;;4.73;2.57;;;;;;;1.12;75.85;100004.53;5054782;28;20562;-73
2021/04/07 07:42:17;;;;;;;3.87;2.40;;;;;;;1.09;76.46;100001.91;5042789;28;20209;-72
2021/04/07 07:44:44;;;;;;;3.57;2.20;;;;;;;1.14;76.54;100007.97;5050690;28;20226;-73
2021/04/07 07:47:17;;;;;;;4.57;2.57;;;;;;;1.22;76.39;100005.50;5047257;28;20571;-73
2021/04/07 07:49:53;;;;;;;2.87;2.53;;;;;;;1.32;75.68;100010.75;5053901;28;20202;-73
2021/04/07 07:52:26;;;;;;;3.40;2.40;;;;;;;1.13;75.97;100009.69;5042316;28;20205;-73
2021/04/07 07:54:53;;;;;;;4.53;2.70;;;;;;;1.22;76.44;100008.94;5054562;28;20228;-73
2021/04/07 07:57:19;;;;;;;4.60;2.33;;;;;;;1.35;76.10;100010.81;5043352;28;20214;-74
2021/04/07 07:59:45;;;;;;;5.00;3.47;;;;;;;1.32;76.98;100020.19;5051992;28;20210;-74
2021/04/07 08:02:15;;;;;;;4.47;2.77;;;;;;;1.48;76.77;100009.22;5049847;28;20212;-74
2021/04/07 08:04:45;;;;;;;3.53;2.73;;;;;;;1.48;76.30;100009.22;5053101;28;20309;-74
2021/04/07 08:07:12;;;;;;;3.60;2.87;;;;;;;1.43;75.77;100012.59;5043923;28;20667;-76
2021/04/07 08:09:38;;;;;;;4.80;3.30;;;;;;;1.55;75.64;100008.44;5059423;28;20221;-76
2021/04/07 08:12:09;;;;;;;4.83;3.00;;;;;;;1.65;75.52;100008.56;5045297;28;20206;-76
2021/04/07 08:14:35;;;;;;;3.90;3.50;;;;;;;1.67;75.90;100018.00;5048839;28;20249;-73
2021/04/07 08:17:01;;;;;;;4.23;3.23;;;;;;;1.69;75.79;100018.03;5045317;28;20210;-73
2021/04/07 08:19:30;;;;;;;4.20;3.67;;;;;;;1.73;76.36;100019.78;5045861;28;20203;-72
2021/04/07 08:21:58;;;;;;;4.87;3.30;;;;;;;1.76;75.88;100019.78;5046189;28;20204;-74
2021/04/07 08:24:27;;;;;;;4.83;3.43;;;;;;;1.84;75.17;100022.44;5044947;28;20238;-73
2021/04/07 08:26:55;;;;;;;6.40;3.90;;;;;;;1.81;76.11;100025.88;5045466;28;20201;-73
2021/04/07 08:29:22;;;;;;;5.03;4.03;;;;;;;1.91;75.32;100022.53;5047639;28;20210;-73
2021/04/07 08:31:50;;;;;;;4.97;3.70;;;;;;;2.01;75.91;100027.78;5052665;28;20630;-73
2021/04/07 08:34:19;;;;;;;4.50;4.00;;;;;;;2.12;75.28;100023.56;5051088;28;20225;-76
2021/04/07 08:36:47;;;;;;;5.90;3.37;;;;;;;1.86;74.05;100026.75;5046369;28;20256;-75
2021/04/07 08:39:14;;;;;;;6.53;3.83;;;;;;;1.92;75.29;100028.53;5049779;28;20199;-74
2021/04/07 08:41:41;;;;;;;3.43;3.10;;;;;;;1.85;74.86;100026.75;5046222;28;20212;-73
2021/04/07 08:44:08;;;;;;;4.73;4.20;;;;;;;1.70;75.52;100030.03;5049173;28;20713;-73
2021/04/07 08:46:45;;;;;;;4.87;4.47;;;;;;;1.61;75.73;100038.53;5046777;28;20202;-73
2021/04/07 08:49:32;;;;;;;5.73;5.13;;;;;;;1.55;77.10;100041.03;5048232;28;20621;-73
2021/04/07 08:51:59;;;;;;;5.73;5.00;;;;;;;1.58;75.95;100038.47;5048802;28;20691;-72
2021/04/07 08:54:25;;;;;;;5.87;5.37;;;;;;;1.54;76.50;100042.72;5050411;28;20277;-72
2021/04/07 08:56:55;;;;;;;7.17;6.07;;;;;;;1.65;77.54;100047.16;5045786;28;20209;-72
2021/04/07 08:59:23;;;;;;;7.97;7.30;;;;;;;1.58;76.33;100043.63;5051972;28;20733;-72
2021/04/07 09:02:05;;;;;;;6.93;6.17;;;;;;;1.60;77.70;100047.06;5049770;28;20202;-72
2021/04/07 09:04:34;;;;;;;7.83;7.20;;;;;;;1.69;78.01;100044.63;5045212;28;20248;-72
2021/04/07 09:07:02;;;;;;;8.43;7.60;;;;;;;1.78;78.22;100037.00;5047059;28;20202;-72
2021/04/07 09:09:35;;;;;;;8.57;7.57;;;;;;;1.87;77.10;100051.66;5053590;28;20210;-76
2021/04/07 09:12:01;;;;;;;9.50;8.60;;;;;;;1.95;77.05;100041.44;5045716;28;20220;-73
2021/04/07 09:14:29;;;;;;;9.90;9.00;;;;;;;2.04;76.76;100045.81;5054360;28;20295;-72
2021/04/07 09:17:03;;;;;;;9.17;8.37;;;;;;;2.05;77.08;100035.53;5042336;28;20201;-72
2021/04/07 09:19:31;;;;;;;9.93;8.57;;;;;;;2.20;76.14;100037.38;5047247;28;20203;-73
2021/04/07 09:22:00;;;;;;;9.30;8.50;;;;;;;2.24;76.59;100040.81;5050267;28;20363;-74
2021/04/07 09:24:28;;;;;;;11.53;10.53;;;;;;;2.24;76.51;100034.00;5055453;28;20531;-74
2021/04/07 09:26:56;;;;;;;11.00;10.00;;;;;;;2.18;76.00;100042.50;5049552;28;20213;-73
2021/04/07 09:29:22;;;;;;;12.50;10.97;;;;;;;2.38;77.65;100031.53;5049585;28;20271;-74
2021/04/07 09:31:50;;;;;;;12.10;11.10;;;;;;;2.44;77.13;100030.69;5048269;28;20214;-77
2021/04/07 09:34:18;;;;;;;11.57;10.60;;;;;;;2.50;76.45;100028.19;5049276;28;20218;-76
2021/04/07 09:36:46;;;;;;;10.80;9.90;;;;;;;2.56;75.89;100035.94;5049020;28;20655;-76
2021/04/07 09:39:13;;;;;;;10.60;9.70;;;;;;;2.72;75.33;100031.75;5047381;28;20669;-72
2021/04/07 09:41:43;;;;;;;10.00;9.10;;;;;;;2.67;75.59;100028.28;5052957;28;20205;-72
2021/04/07 09:44:11;;;;;;;11.83;10.83;;;;;;;2.83;75.39;100032.66;5048459;28;20925;-73
2021/04/07 09:46:37;;;;;;;11.50;10.50;;;;;;;3.07;75.73;100031.97;5049206;28;20200;-73
2021/04/07 09:49:06;;;;;;;10.13;9.23;;;;;;;3.05;74.13;100031.06;5052827;28;20200;-73
2021/04/07 09:51:34;;;;;;;11.07;10.07;;;;;;;2.94;74.37;100031.03;5048483;28;20256;-73
2021/04/07 09:54:23;;;;;;;10.90;9.97;;;;;;;2.70;75.21;100042.03;5061416;28;20226;-76
2021/04/07 09:56:54;;;;;;;10.50;9.70;;;;;;;2.60;75.33;100042.84;5073847;28;20205;-73
2021/04/07 09:59:34;;;;;;;10.00;9.17;;;;;;;2.62;75.86;100043.72;5058482;28;20362;-76
2021/04/07 10:02:02;;;;;;;10.90;10.00;;;;;;;2.53;75.94;100047.06;4351927;28;10001692;-75
2021/04/07 10:04:29;;;;;;;10.97;10.00;;;;;;;2.70;76.17;100038.63;5047728;28;20229;-74
2021/04/07 10:06:56;;;;;;;10.70;9.80;;;;;;;2.56;76.20;100041.94;5051080;28;20203;-73
2021/04/07 10:09:29;;;;;;;10.47;9.57;;;;;;;2.57;76.75;100048.81;5050296;28;20206;-75
2021/04/07 10:11:56;;;;;;;9.37;8.57;;;;;;;2.46;75.60;100052.16;5048629;28;20216;-72
2021/04/07 10:14:22;;;;;;;10.50;9.60;;;;;;;2.53;76.35;100038.47;5049281;28;20237;-71
2021/04/07 10:16:48;;;;;;;9.80;8.90;;;;;;;2.68;76.26;100042.91;5049534;28;20209;-72
2021/04/07 10:19:14;;;;;;;8.60;7.90;;;;;;;2.64;75.06;100044.59;5048242;28;20213;-72
2021/04/07 10:21:43;;;;;;;8.37;7.73;;;;;;;2.52;74.01;100044.50;5048065;28;20206;-71
2021/04/07 10:24:15;;;;;;;7.77;7.07;;;;;;;2.45;75.38;100051.31;5047042;28;20233;-72
2021/04/07 10:26:42;;;;;;;10.00;9.20;;;;;;;2.59;74.92;100048.84;5047812;28;20212;-72
2021/04/07 10:29:09;;;;;;;9.27;8.57;;;;;;;2.80;74.82;100039.53;5046937;28;20202;-72
2021/04/07 10:31:35;;;;;;;9.27;8.47;;;;;;;2.69;74.04;100047.19;5046370;28;20204;-71
2021/04/07 10:34:07;;;;;;;9.17;8.43;;;;;;;2.80;73.98;100042.97;5042720;28;20224;-74
2021/04/07 10:36:33;;;;;;;8.37;7.73;;;;;;;2.76;73.48;100049.81;5039510;28;20592;-73
2021/04/07 10:38:59;;;;;;;8.73;8.03;;;;;;;2.79;72.75;100059.28;5041304;28;20345;-74
2021/04/07 10:41:27;;;;;;;8.40;7.70;;;;;;;2.75;73.95;100045.50;5041374;28;20239;-72
2021/04/07 10:43:53;;;;;;;9.13;8.33;;;;;;;2.66;73.27;100049.75;5041946;28;20232;-72
2021/04/07 10:46:29;;;;;;;9.57;8.77;;;;;;;2.81;73.67;100057.56;5040987;28;20207;-72
2021/04/07 10:48:56;;;;;;;9.87;9.07;;;;;;;2.74;74.76;100056.69;5041366;28;20202;-72
2021/04/07 10:51:23;;;;;;;11.07;10.17;;;;;;;2.69;74.57;100058.34;5065952;28;20210;-72
2021/04/07 10:53:55;;;;;;;10.80;9.90;;;;;;;2.60;74.99;100045.41;5054716;28;20198;-72
2021/04/07 10:56:23;;;;;;;9.13;8.33;;;;;;;2.68;75.02;100055.78;5066456;28;20204;-73
2021/04/07 10:59:00;;;;;;;12.73;11.63;;;;;;;2.83;75.16;100055.00;5043333;28;20654;-72
2021/04/07 11:01:27;;;;;;;11.37;10.37;;;;;;;2.72;75.49;100054.94;5050052;28;20260;-73
2021/04/07 11:03:53;;;;;;;13.00;11.90;;;;;;;2.61;76.26;100051.44;5052688;28;20234;-72
2021/04/07 11:06:23;;;;;;;11.00;10.10;;;;;;;2.77;75.99;100051.56;5065303;28;20712;-72
2021/04/07 11:08:52;;;;;;;11.50;10.60;;;;;;;3.13;75.37;100052.63;5048825;28;20201;-73
2021/04/07 11:11:24;;;;;;;11.27;10.37;;;;;;;3.26;74.07;100057.81;5060959;28;20222;-72
2021/04/07 11:13:51;;;;;;;9.70;8.90;;;;;;;3.16;73.51;100052.63;5051124;28;20214;-73
2021/04/07 11:16:17;;;;;;;9.10;8.40;;;;;;;3.09;73.49;100068.03;5061249;28;20699;-72
2021/04/07 11:18:44;;;;;;;10.87;9.97;;;;;;;2.93;74.83;100059.34;5057475;28;20658;-72
2021/04/07 11:21:11;;;;;;;8.97;8.27;;;;;;;2.83;73.25;100061.00;5065896;28;20208;-73
2021/04/07 11:23:37;;;;;;;10.63;9.83;;;;;;;2.94;75.13;100055.94;5057585;28;20241;-72
2021/04/07 11:26:04;;;;;;;11.57;10.67;;;;;;;3.04;75.34;100069.75;5064549;28;20201;-72
2021/04/07 11:28:30;;;;;;;12.70;11.67;;;;;;;3.07;75.79;100074.91;5057561;28;20209;-73
2021/04/07 11:31:00;;;;;;;10.17;9.30;;;;;;;3.07;74.79;100062.91;5046221;28;20202;-73
2021/04/07 11:33:33;;;;;;;11.83;10.90;;;;;;;2.91;75.44;100076.53;5043940;28;20211;-72
2021/04/07 11:36:05;;;;;;;11.30;10.30;;;;;;;2.85;74.82;100069.63;5058917;28;20197;-72